FHA12E EDDH-LPFR
Flight info
| Callsign | FHA12E |
|---|---|
| Flight time | 3h 1m |
| Altitude | 40000 |
| Route | HABFU1C HABFU Y348 DOMEG DCT MAS DCT RASCA DCT FAMEN/N0487F410 DCT AHVEC UN857 DISAK DCT ARKIP DCT ARNAV DCT LMG DCT UVELI DCT OSMOB DCT VAVIX DCT BTZ DCT URUNA DCT SSN DCT VRA DCT NEA L14 ADINO DCT ELVAR DCT ALAGU ALAGU8A |
| Aircraft | A35K/H-SDE2E3GHIJ3J4J5LM1ORWXY/LB1D1 |
Departure
| Time | 2026-05-07 13:15 |
|---|---|
| Airport | Hamburg Helmut Schmidt Airport (EDDH) |
Arrival
| Time | 2026-05-07 16:16 |
|---|---|
| Airport | Faro - Gago Coutinho International Airport (LPFR) |
| Time | Latitude | Longitude | Altitude | Speed | Heading |
|---|---|---|---|---|---|
| 2026-05-07 12:38 | 53.63017 | 10.00328 | 47 ft | 0 kts | 123° |
| 2026-05-07 13:04 | 53.63027 | 10.00303 | 47 ft | 4 kts | 123° |
| 2026-05-07 13:04 | 53.63038 | 10.00272 | 47 ft | 4 kts | 124° |
| 2026-05-07 13:05 | 53.63056 | 10.00240 | 47 ft | 4 kts | 151° |
| 2026-05-07 13:05 | 53.63081 | 10.00227 | 47 ft | 4 kts | 178° |
| 2026-05-07 13:05 | 53.63102 | 10.00227 | 47 ft | 0 kts | 181° |
| 2026-05-07 13:07 | 53.63086 | 10.00223 | 54 ft | 4 kts | 192° |
| 2026-05-07 13:08 | 53.63035 | 10.00187 | 50 ft | 11 kts | 210° |
| 2026-05-07 13:08 | 53.62956 | 10.00102 | 51 ft | 16 kts | 212° |
| 2026-05-07 13:08 | 53.62876 | 10.00030 | 50 ft | 9 kts | 208° |
| 2026-05-07 13:08 | 53.62836 | 9.99990 | 47 ft | 0 kts | 210° |
| 2026-05-07 13:09 | 53.62828 | 9.99983 | 47 ft | 4 kts | 210° |
| 2026-05-07 13:09 | 53.62778 | 9.99935 | 46 ft | 14 kts | 208° |
| 2026-05-07 13:09 | 53.62669 | 9.99825 | 46 ft | 22 kts | 224° |
| 2026-05-07 13:09 | 53.62616 | 9.99559 | 49 ft | 26 kts | 259° |
| 2026-05-07 13:10 | 53.62590 | 9.99323 | 49 ft | 21 kts | 259° |
| 2026-05-07 13:10 | 53.62561 | 9.99071 | 48 ft | 21 kts | 258° |
| 2026-05-07 13:10 | 53.62533 | 9.98832 | 48 ft | 16 kts | 259° |
| 2026-05-07 13:10 | 53.62510 | 9.98627 | 48 ft | 20 kts | 259° |
| 2026-05-07 13:11 | 53.62481 | 9.98378 | 53 ft | 23 kts | 259° |
| 2026-05-07 13:11 | 53.62438 | 9.98123 | 47 ft | 24 kts | 243° |
| 2026-05-07 13:11 | 53.62332 | 9.97891 | 47 ft | 27 kts | 230° |
| 2026-05-07 13:11 | 53.62212 | 9.97649 | 46 ft | 26 kts | 230° |
| 2026-05-07 13:12 | 53.62100 | 9.97423 | 50 ft | 22 kts | 230° |
| 2026-05-07 13:12 | 53.62014 | 9.97248 | 46 ft | 20 kts | 230° |
| 2026-05-07 13:12 | 53.61917 | 9.97052 | 47 ft | 24 kts | 230° |
| 2026-05-07 13:12 | 53.61813 | 9.96840 | 48 ft | 22 kts | 230° |
| 2026-05-07 13:13 | 53.61719 | 9.96647 | 49 ft | 15 kts | 231° |
| 2026-05-07 13:13 | 53.61678 | 9.96546 | 47 ft | 11 kts | 247° |
| 2026-05-07 13:13 | 53.61675 | 9.96498 | 48 ft | 5 kts | 276° |
| 2026-05-07 13:13 | 53.61744 | 9.96422 | 49 ft | 15 kts | 354° |
| 2026-05-07 13:14 | 53.61860 | 9.96456 | 49 ft | 19 kts | 31° |
| 2026-05-07 13:14 | 53.61904 | 9.96530 | 48 ft | 0 kts | 52° |
| 2026-05-07 13:14 | 53.61967 | 9.96658 | 49 ft | 46 kts | 50° |
| 2026-05-07 13:15 | 53.62354 | 9.97438 | 46 ft | 124 kts | 50° |
| 2026-05-07 13:15 | 53.63050 | 9.98842 | 169 ft | 179 kts | 51° |
| 2026-05-07 13:15 | 53.63908 | 10.00541 | 839 ft | 194 kts | 51° |
| 2026-05-07 13:15 | 53.64788 | 10.02325 | 1908 ft | 205 kts | 51° |
| 2026-05-07 13:16 | 53.65694 | 10.04180 | 2919 ft | 203 kts | 51° |
| 2026-05-07 13:16 | 53.66588 | 10.06012 | 3923 ft | 201 kts | 52° |
| 2026-05-07 13:16 | 53.67471 | 10.07824 | 4807 ft | 205 kts | 52° |
| 2026-05-07 13:16 | 53.68410 | 10.09660 | 5664 ft | 210 kts | 47° |
| 2026-05-07 13:17 | 53.69650 | 10.11002 | 6540 ft | 217 kts | 21° |
| 2026-05-07 13:17 | 53.71171 | 10.11156 | 7377 ft | 230 kts | 352° |
| 2026-05-07 13:17 | 53.72628 | 10.09828 | 7974 ft | 253 kts | 316° |
| 2026-05-07 13:17 | 53.73468 | 10.07089 | 8577 ft | 278 kts | 281° |
| 2026-05-07 13:18 | 53.73763 | 10.03819 | 9517 ft | 284 kts | 286° |
| 2026-05-07 13:18 | 53.74505 | 10.00755 | 10580 ft | 286 kts | 291° |
| 2026-05-07 13:18 | 53.74920 | 9.97336 | 11078 ft | 311 kts | 270° |
| 2026-05-07 13:18 | 53.74455 | 9.93709 | 11599 ft | 331 kts | 248° |
| 2026-05-07 13:19 | 53.73526 | 9.90091 | 12482 ft | 339 kts | 246° |
| 2026-05-07 13:19 | 53.72561 | 9.86427 | 13445 ft | 344 kts | 246° |
| 2026-05-07 13:19 | 53.71595 | 9.82700 | 14348 ft | 349 kts | 247° |
| 2026-05-07 13:19 | 53.70623 | 9.78919 | 15219 ft | 353 kts | 247° |
| 2026-05-07 13:20 | 53.69476 | 9.75226 | 16118 ft | 357 kts | 237° |
| 2026-05-07 13:20 | 53.67837 | 9.72059 | 16990 ft | 363 kts | 221° |
| 2026-05-07 13:20 | 53.65713 | 9.69808 | 17903 ft | 369 kts | 207° |
| 2026-05-07 13:20 | 53.63347 | 9.67930 | 18777 ft | 373 kts | 206° |
| 2026-05-07 13:21 | 53.61007 | 9.66149 | 19638 ft | 376 kts | 206° |
| 2026-05-07 13:21 | 53.58609 | 9.64331 | 20459 ft | 380 kts | 205° |
| 2026-05-07 13:21 | 53.56187 | 9.62496 | 21243 ft | 385 kts | 205° |
| 2026-05-07 13:21 | 53.53728 | 9.60637 | 22068 ft | 388 kts | 205° |
| 2026-05-07 13:22 | 53.51261 | 9.58772 | 22905 ft | 391 kts | 205° |
| 2026-05-07 13:22 | 53.48765 | 9.56887 | 23662 ft | 396 kts | 205° |
| 2026-05-07 13:22 | 53.46236 | 9.54980 | 24270 ft | 401 kts | 205° |
| 2026-05-07 13:22 | 53.43680 | 9.53055 | 24880 ft | 405 kts | 205° |
| 2026-05-07 13:23 | 53.41139 | 9.51143 | 25545 ft | 408 kts | 205° |
| 2026-05-07 13:23 | 53.38534 | 9.49186 | 26165 ft | 412 kts | 205° |
| 2026-05-07 13:23 | 53.35900 | 9.47209 | 26725 ft | 418 kts | 205° |
| 2026-05-07 13:23 | 53.33238 | 9.45215 | 27344 ft | 422 kts | 205° |
| 2026-05-07 13:24 | 53.30549 | 9.43202 | 28001 ft | 425 kts | 205° |
| 2026-05-07 13:24 | 53.27834 | 9.41174 | 28571 ft | 430 kts | 205° |
| 2026-05-07 13:24 | 53.25088 | 9.39124 | 29109 ft | 435 kts | 205° |
| 2026-05-07 13:24 | 53.22316 | 9.37059 | 29719 ft | 438 kts | 205° |
| 2026-05-07 13:25 | 53.19518 | 9.34978 | 30262 ft | 442 kts | 205° |
| 2026-05-07 13:25 | 53.16693 | 9.32878 | 30671 ft | 447 kts | 204° |
| 2026-05-07 13:25 | 53.13878 | 9.30790 | 31083 ft | 451 kts | 204° |
| 2026-05-07 13:25 | 53.10998 | 9.28656 | 31510 ft | 455 kts | 204° |
| 2026-05-07 13:26 | 53.08088 | 9.26503 | 31929 ft | 459 kts | 204° |
| 2026-05-07 13:26 | 53.05159 | 9.24340 | 32339 ft | 463 kts | 204° |
| 2026-05-07 13:26 | 53.02195 | 9.22154 | 32734 ft | 467 kts | 204° |
| 2026-05-07 13:26 | 52.99210 | 9.19955 | 33137 ft | 471 kts | 204° |
| 2026-05-07 13:27 | 52.96203 | 9.17744 | 33529 ft | 475 kts | 204° |
| 2026-05-07 13:27 | 52.93180 | 9.15489 | 33836 ft | 479 kts | 206° |
| 2026-05-07 13:27 | 52.90237 | 9.13034 | 34158 ft | 482 kts | 208° |
| 2026-05-07 13:27 | 52.87276 | 9.10386 | 34505 ft | 483 kts | 209° |
| 2026-05-07 13:28 | 52.84334 | 9.07701 | 34874 ft | 484 kts | 210° |
| 2026-05-07 13:28 | 52.81391 | 9.05026 | 35375 ft | 481 kts | 209° |
| 2026-05-07 13:28 | 52.78457 | 9.02395 | 35863 ft | 479 kts | 209° |
| 2026-05-07 13:28 | 52.75531 | 8.99806 | 36331 ft | 477 kts | 208° |
| 2026-05-07 13:29 | 52.72600 | 8.97238 | 36713 ft | 477 kts | 208° |
| 2026-05-07 13:29 | 52.69667 | 8.94687 | 37025 ft | 478 kts | 208° |
| 2026-05-07 13:29 | 52.66721 | 8.92128 | 37404 ft | 477 kts | 208° |
| 2026-05-07 13:29 | 52.63827 | 8.89619 | 37791 ft | 476 kts | 208° |
| 2026-05-07 13:30 | 52.60897 | 8.87085 | 38123 ft | 476 kts | 208° |
| 2026-05-07 13:30 | 52.57969 | 8.84555 | 38464 ft | 475 kts | 208° |
| 2026-05-07 13:30 | 52.55042 | 8.82029 | 38770 ft | 475 kts | 208° |
| 2026-05-07 13:30 | 52.52115 | 8.79505 | 39012 ft | 475 kts | 208° |
| 2026-05-07 13:31 | 52.49184 | 8.76981 | 39251 ft | 475 kts | 208° |
| 2026-05-07 13:31 | 52.46255 | 8.74463 | 39487 ft | 475 kts | 208° |
| 2026-05-07 13:31 | 52.43333 | 8.71954 | 39699 ft | 475 kts | 208° |
| 2026-05-07 13:31 | 52.40440 | 8.69473 | 39927 ft | 475 kts | 208° |
| 2026-05-07 13:32 | 52.37510 | 8.66965 | 40039 ft | 477 kts | 208° |
| 2026-05-07 13:32 | 52.34572 | 8.64453 | 40071 ft | 476 kts | 208° |
| 2026-05-07 13:32 | 52.28778 | 8.59220 | 40067 ft | 476 kts | 214° |
| 2026-05-07 13:33 | 52.23842 | 8.52082 | 40064 ft | 475 kts | 226° |
| 2026-05-07 13:33 | 52.19394 | 8.44207 | 40066 ft | 476 kts | 228° |
| 2026-05-07 13:34 | 52.12757 | 8.32188 | 40065 ft | 476 kts | 227° |
| 2026-05-07 13:35 | 52.08303 | 8.24222 | 40068 ft | 476 kts | 227° |
| 2026-05-07 13:35 | 52.03829 | 8.16281 | 40069 ft | 476 kts | 227° |
| 2026-05-07 13:36 | 51.99379 | 8.08414 | 40063 ft | 476 kts | 227° |
| 2026-05-07 13:36 | 51.94899 | 8.00518 | 40064 ft | 476 kts | 227° |
| 2026-05-07 13:37 | 51.90410 | 7.92629 | 40062 ft | 476 kts | 227° |
| 2026-05-07 13:37 | 51.85919 | 7.84760 | 40061 ft | 476 kts | 227° |
| 2026-05-07 13:38 | 51.81450 | 7.76954 | 40064 ft | 476 kts | 227° |
| 2026-05-07 13:38 | 51.76950 | 7.69120 | 40065 ft | 476 kts | 227° |
| 2026-05-07 13:39 | 51.72451 | 7.61307 | 40069 ft | 476 kts | 227° |
| 2026-05-07 13:39 | 51.68377 | 7.52905 | 40069 ft | 476 kts | 234° |
| 2026-05-07 13:40 | 51.64523 | 7.44222 | 40053 ft | 476 kts | 234° |
| 2026-05-07 13:40 | 51.60727 | 7.35584 | 40053 ft | 476 kts | 234° |
| 2026-05-07 13:41 | 51.56889 | 7.26904 | 40043 ft | 476 kts | 234° |
| 2026-05-07 13:41 | 51.53039 | 7.18255 | 40046 ft | 476 kts | 234° |
| 2026-05-07 13:42 | 51.49225 | 7.09724 | 40042 ft | 476 kts | 234° |
| 2026-05-07 13:42 | 51.45572 | 7.01580 | 40042 ft | 476 kts | 234° |
| 2026-05-07 13:43 | 51.41702 | 6.92978 | 40042 ft | 476 kts | 234° |
| 2026-05-07 13:43 | 51.37823 | 6.84385 | 40034 ft | 476 kts | 234° |
| 2026-05-07 13:44 | 51.34160 | 6.76295 | 40034 ft | 476 kts | 234° |
| 2026-05-07 13:44 | 51.30412 | 6.68045 | 40049 ft | 476 kts | 234° |
| 2026-05-07 13:45 | 51.26523 | 6.59511 | 40048 ft | 475 kts | 234° |
| 2026-05-07 13:45 | 51.22793 | 6.51353 | 40048 ft | 475 kts | 234° |
| 2026-05-07 13:46 | 51.18891 | 6.42847 | 40046 ft | 475 kts | 233° |
| 2026-05-07 13:46 | 51.15097 | 6.34601 | 40044 ft | 475 kts | 233° |
| 2026-05-07 13:47 | 51.11184 | 6.26125 | 40044 ft | 475 kts | 233° |
| 2026-05-07 13:47 | 51.07321 | 6.17784 | 40046 ft | 475 kts | 233° |
| 2026-05-07 13:48 | 51.03416 | 6.09380 | 40048 ft | 475 kts | 233° |
| 2026-05-07 13:48 | 50.99491 | 6.00959 | 40048 ft | 475 kts | 233° |
| 2026-05-07 13:49 | 50.95047 | 5.93242 | 40050 ft | 474 kts | 222° |
| 2026-05-07 13:49 | 50.90055 | 5.86403 | 40047 ft | 475 kts | 220° |
| 2026-05-07 13:50 | 50.85016 | 5.79754 | 40046 ft | 475 kts | 220° |
| 2026-05-07 13:50 | 50.79936 | 5.73068 | 40047 ft | 475 kts | 220° |
| 2026-05-07 13:51 | 50.74866 | 5.66381 | 40048 ft | 475 kts | 220° |
| 2026-05-07 13:51 | 50.69798 | 5.59699 | 40076 ft | 475 kts | 220° |
| 2026-05-07 13:52 | 50.64730 | 5.53035 | 40075 ft | 474 kts | 220° |
| 2026-05-07 13:52 | 50.59667 | 5.46398 | 40062 ft | 474 kts | 220° |
| 2026-05-07 13:53 | 50.54631 | 5.39816 | 40061 ft | 474 kts | 220° |
| 2026-05-07 13:53 | 50.49557 | 5.33205 | 40064 ft | 474 kts | 220° |
| 2026-05-07 13:54 | 50.44482 | 5.26611 | 40061 ft | 474 kts | 220° |
| 2026-05-07 13:54 | 50.39404 | 5.20030 | 40059 ft | 473 kts | 220° |
| 2026-05-07 13:55 | 50.34324 | 5.13467 | 40059 ft | 473 kts | 220° |
| 2026-05-07 13:55 | 50.29271 | 5.06959 | 40056 ft | 473 kts | 220° |
| 2026-05-07 13:56 | 50.24193 | 5.00435 | 40060 ft | 472 kts | 220° |
| 2026-05-07 13:56 | 50.19110 | 4.93924 | 40062 ft | 472 kts | 220° |
| 2026-05-07 13:57 | 50.14181 | 4.87167 | 40062 ft | 472 kts | 228° |
| 2026-05-07 13:57 | 50.09877 | 4.79545 | 40059 ft | 472 kts | 230° |
| 2026-05-07 13:58 | 50.05656 | 4.71735 | 40061 ft | 471 kts | 230° |
| 2026-05-07 13:58 | 50.01444 | 4.63927 | 40062 ft | 471 kts | 230° |
| 2026-05-07 13:59 | 49.97211 | 4.56140 | 40239 ft | 472 kts | 230° |
| 2026-05-07 13:59 | 49.95046 | 4.52317 | 40501 ft | 471 kts | 227° |
| 2026-05-07 13:59 | 49.92834 | 4.48682 | 40762 ft | 469 kts | 226° |
| 2026-05-07 13:59 | 49.90555 | 4.45056 | 40980 ft | 469 kts | 226° |
| 2026-05-07 14:00 | 49.88264 | 4.41434 | 41056 ft | 472 kts | 226° |
| 2026-05-07 14:00 | 49.83669 | 4.34108 | 41064 ft | 474 kts | 226° |
| 2026-05-07 14:01 | 49.79102 | 4.26741 | 41064 ft | 474 kts | 226° |
| 2026-05-07 14:01 | 49.74576 | 4.19424 | 41061 ft | 474 kts | 226° |
| 2026-05-07 14:02 | 49.70017 | 4.12071 | 41062 ft | 474 kts | 226° |
| 2026-05-07 14:02 | 49.65448 | 4.04729 | 41060 ft | 474 kts | 226° |
| 2026-05-07 14:03 | 49.60875 | 3.97403 | 41062 ft | 474 kts | 226° |
| 2026-05-07 14:03 | 49.56301 | 3.90099 | 41061 ft | 473 kts | 226° |
| 2026-05-07 14:04 | 49.51755 | 3.82860 | 41062 ft | 473 kts | 226° |
| 2026-05-07 14:04 | 49.47176 | 3.75586 | 41061 ft | 473 kts | 226° |
| 2026-05-07 14:05 | 49.42587 | 3.68321 | 41064 ft | 473 kts | 226° |
| 2026-05-07 14:05 | 49.38035 | 3.61133 | 41064 ft | 473 kts | 226° |
| 2026-05-07 14:06 | 49.33444 | 3.53904 | 41066 ft | 473 kts | 226° |
| 2026-05-07 14:06 | 49.28851 | 3.46693 | 41059 ft | 473 kts | 226° |
| 2026-05-07 14:07 | 49.24259 | 3.39503 | 41053 ft | 472 kts | 226° |
| 2026-05-07 14:07 | 49.19658 | 3.32320 | 41056 ft | 472 kts | 226° |
| 2026-05-07 14:08 | 49.15060 | 3.25163 | 41058 ft | 472 kts | 226° |
| 2026-05-07 14:08 | 49.10490 | 3.18068 | 41053 ft | 472 kts | 226° |
| 2026-05-07 14:09 | 49.05886 | 3.10941 | 41048 ft | 472 kts | 226° |
| 2026-05-07 14:09 | 49.01274 | 3.03821 | 41044 ft | 471 kts | 226° |
| 2026-05-07 14:10 | 48.96743 | 2.96846 | 41042 ft | 471 kts | 226° |
| 2026-05-07 14:10 | 48.92093 | 2.89707 | 41042 ft | 471 kts | 226° |
| 2026-05-07 14:11 | 48.87485 | 2.82652 | 41042 ft | 471 kts | 226° |
| 2026-05-07 14:11 | 48.82912 | 2.75526 | 41041 ft | 470 kts | 230° |
| 2026-05-07 14:12 | 48.79026 | 2.67646 | 41044 ft | 470 kts | 235° |
| 2026-05-07 14:12 | 48.75305 | 2.59501 | 41049 ft | 470 kts | 236° |
| 2026-05-07 14:13 | 48.71609 | 2.51334 | 41048 ft | 470 kts | 236° |
| 2026-05-07 14:13 | 48.67902 | 2.43194 | 41047 ft | 470 kts | 236° |
| 2026-05-07 14:14 | 48.64177 | 2.35068 | 41048 ft | 470 kts | 236° |
| 2026-05-07 14:14 | 48.60507 | 2.27389 | 41045 ft | 470 kts | 230° |
| 2026-05-07 14:15 | 48.56107 | 2.21282 | 41045 ft | 471 kts | 215° |
| 2026-05-07 14:15 | 48.50184 | 2.17052 | 41032 ft | 475 kts | 197° |
| 2026-05-07 14:16 | 48.43746 | 2.14755 | 41035 ft | 477 kts | 194° |
| 2026-05-07 14:16 | 48.37292 | 2.12781 | 41032 ft | 477 kts | 193° |
| 2026-05-07 14:17 | 48.30784 | 2.10890 | 41028 ft | 478 kts | 189° |
| 2026-05-07 14:17 | 48.24124 | 2.10887 | 41036 ft | 481 kts | 176° |
| 2026-05-07 14:18 | 48.17469 | 2.12159 | 41031 ft | 483 kts | 174° |
| 2026-05-07 14:18 | 48.10802 | 2.12535 | 41042 ft | 478 kts | 187° |
| 2026-05-07 14:19 | 48.04240 | 2.11519 | 41043 ft | 477 kts | 189° |
| 2026-05-07 14:19 | 47.97658 | 2.10229 | 41046 ft | 477 kts | 190° |
| 2026-05-07 14:20 | 47.91084 | 2.08923 | 41046 ft | 477 kts | 189° |
| 2026-05-07 14:20 | 47.84545 | 2.07658 | 41048 ft | 477 kts | 189° |
| 2026-05-07 14:21 | 47.77960 | 2.06405 | 41007 ft | 477 kts | 189° |
| 2026-05-07 14:21 | 47.71391 | 2.05163 | 41018 ft | 476 kts | 189° |
| 2026-05-07 14:22 | 47.64835 | 2.03816 | 41018 ft | 474 kts | 194° |
| 2026-05-07 14:22 | 47.58618 | 2.00953 | 41017 ft | 471 kts | 202° |
| 2026-05-07 14:23 | 47.52508 | 1.97456 | 41016 ft | 470 kts | 204° |
| 2026-05-07 14:23 | 47.46426 | 1.93878 | 41018 ft | 470 kts | 204° |
| 2026-05-07 14:24 | 47.40341 | 1.90331 | 41018 ft | 470 kts | 203° |
| 2026-05-07 14:24 | 47.34253 | 1.86818 | 41021 ft | 470 kts | 203° |
| 2026-05-07 14:25 | 47.28205 | 1.83347 | 41025 ft | 469 kts | 203° |
| 2026-05-07 14:25 | 47.22115 | 1.79860 | 41015 ft | 469 kts | 203° |
| 2026-05-07 14:26 | 47.16025 | 1.76386 | 41005 ft | 469 kts | 203° |
| 2026-05-07 14:26 | 47.09929 | 1.72961 | 41015 ft | 469 kts | 203° |
| 2026-05-07 14:27 | 47.03829 | 1.69544 | 41016 ft | 469 kts | 203° |
| 2026-05-07 14:27 | 46.97771 | 1.66152 | 41018 ft | 469 kts | 203° |
| 2026-05-07 14:28 | 46.91682 | 1.62746 | 41023 ft | 469 kts | 203° |
| 2026-05-07 14:28 | 46.85588 | 1.59346 | 41019 ft | 468 kts | 203° |
| 2026-05-07 14:29 | 46.79505 | 1.55960 | 41017 ft | 468 kts | 203° |
| 2026-05-07 14:29 | 46.73465 | 1.52606 | 41012 ft | 468 kts | 202° |
| 2026-05-07 14:30 | 46.67374 | 1.49231 | 41006 ft | 468 kts | 202° |
| 2026-05-07 14:30 | 46.61289 | 1.45869 | 41004 ft | 468 kts | 202° |
| 2026-05-07 14:31 | 46.55201 | 1.42513 | 40986 ft | 468 kts | 202° |
| 2026-05-07 14:31 | 46.49162 | 1.39192 | 40993 ft | 467 kts | 202° |
| 2026-05-07 14:32 | 46.43078 | 1.35854 | 40990 ft | 467 kts | 202° |
| 2026-05-07 14:32 | 46.36992 | 1.32523 | 40990 ft | 467 kts | 202° |
| 2026-05-07 14:33 | 46.30906 | 1.29201 | 40992 ft | 467 kts | 202° |
| 2026-05-07 14:33 | 46.24868 | 1.25912 | 40986 ft | 467 kts | 202° |
| 2026-05-07 14:34 | 46.18786 | 1.22606 | 40987 ft | 467 kts | 202° |
| 2026-05-07 14:34 | 46.12703 | 1.19308 | 40989 ft | 467 kts | 202° |
| 2026-05-07 14:35 | 46.06623 | 1.16019 | 40991 ft | 466 kts | 202° |
| 2026-05-07 14:35 | 46.00553 | 1.12744 | 40992 ft | 466 kts | 202° |
| 2026-05-07 14:36 | 45.94514 | 1.09493 | 40988 ft | 466 kts | 202° |
| 2026-05-07 14:36 | 45.88445 | 1.06234 | 40988 ft | 466 kts | 202° |
| 2026-05-07 14:37 | 45.82474 | 1.02672 | 40988 ft | 463 kts | 210° |
| 2026-05-07 14:37 | 45.74775 | 0.94525 | 40997 ft | 461 kts | 221° |
| 2026-05-07 14:38 | 45.69880 | 0.88616 | 40975 ft | 461 kts | 221° |
| 2026-05-07 14:38 | 45.64984 | 0.82706 | 40975 ft | 461 kts | 221° |
| 2026-05-07 14:39 | 45.60068 | 0.76830 | 40982 ft | 461 kts | 220° |
| 2026-05-07 14:39 | 45.55178 | 0.71020 | 40988 ft | 460 kts | 220° |
| 2026-05-07 14:40 | 45.50253 | 0.65186 | 40985 ft | 460 kts | 220° |
| 2026-05-07 14:40 | 45.45329 | 0.59367 | 40962 ft | 460 kts | 220° |
| 2026-05-07 14:41 | 45.40397 | 0.53550 | 40979 ft | 460 kts | 220° |
| 2026-05-07 14:41 | 45.35467 | 0.47749 | 40976 ft | 460 kts | 220° |
| 2026-05-07 14:42 | 45.30565 | 0.41994 | 40971 ft | 460 kts | 220° |
| 2026-05-07 14:42 | 45.25631 | 0.36214 | 40962 ft | 460 kts | 220° |
| 2026-05-07 14:43 | 45.20690 | 0.30441 | 40966 ft | 460 kts | 220° |
| 2026-05-07 14:43 | 45.15777 | 0.24712 | 40978 ft | 460 kts | 220° |
| 2026-05-07 14:44 | 45.10836 | 0.18966 | 40975 ft | 460 kts | 220° |
| 2026-05-07 14:44 | 45.05888 | 0.13223 | 40970 ft | 460 kts | 220° |
| 2026-05-07 14:45 | 45.00944 | 0.07497 | 40973 ft | 460 kts | 220° |
| 2026-05-07 14:45 | 44.95988 | 0.01773 | 40968 ft | 460 kts | 220° |
| 2026-05-07 14:46 | 44.91039 | -0.03930 | 40968 ft | 460 kts | 220° |
| 2026-05-07 14:46 | 44.86118 | -0.09587 | 40965 ft | 460 kts | 220° |
| 2026-05-07 14:47 | 44.81157 | -0.15278 | 40967 ft | 460 kts | 220° |
| 2026-05-07 14:47 | 44.76195 | -0.20957 | 40963 ft | 460 kts | 220° |
| 2026-05-07 14:48 | 44.71231 | -0.26626 | 40966 ft | 460 kts | 220° |
| 2026-05-07 14:48 | 44.66291 | -0.32254 | 40961 ft | 460 kts | 220° |
| 2026-05-07 14:49 | 44.61236 | -0.37743 | 40963 ft | 460 kts | 216° |
| 2026-05-07 14:49 | 44.55906 | -0.42741 | 40962 ft | 461 kts | 214° |
| 2026-05-07 14:50 | 44.50563 | -0.47691 | 40951 ft | 460 kts | 215° |
| 2026-05-07 14:50 | 44.45291 | -0.52681 | 40955 ft | 460 kts | 215° |
| 2026-05-07 14:51 | 44.40003 | -0.57737 | 40947 ft | 460 kts | 215° |
| 2026-05-07 14:51 | 44.34719 | -0.62790 | 40948 ft | 461 kts | 215° |
| 2026-05-07 14:52 | 44.29425 | -0.67837 | 40951 ft | 461 kts | 215° |
| 2026-05-07 14:52 | 44.24167 | -0.72936 | 40949 ft | 460 kts | 217° |
| 2026-05-07 14:53 | 44.19052 | -0.78211 | 40949 ft | 461 kts | 218° |
| 2026-05-07 14:53 | 44.13902 | -0.83540 | 40945 ft | 461 kts | 217° |
| 2026-05-07 14:54 | 44.08731 | -0.88827 | 40944 ft | 462 kts | 217° |
| 2026-05-07 14:54 | 44.03545 | -0.94088 | 40939 ft | 462 kts | 217° |
| 2026-05-07 14:55 | 43.98382 | -0.99309 | 40933 ft | 462 kts | 217° |
| 2026-05-07 14:55 | 43.93182 | -1.04558 | 40927 ft | 462 kts | 217° |
| 2026-05-07 14:56 | 43.87978 | -1.09801 | 40922 ft | 462 kts | 217° |
| 2026-05-07 14:56 | 43.82777 | -1.15030 | 40925 ft | 462 kts | 217° |
| 2026-05-07 14:57 | 43.77601 | -1.20222 | 40914 ft | 463 kts | 217° |
| 2026-05-07 14:57 | 43.72383 | -1.25445 | 40915 ft | 463 kts | 217° |
| 2026-05-07 14:58 | 43.67160 | -1.30662 | 40918 ft | 463 kts | 217° |
| 2026-05-07 14:58 | 43.61939 | -1.35865 | 40909 ft | 463 kts | 217° |
| 2026-05-07 14:59 | 43.56717 | -1.41058 | 40914 ft | 463 kts | 217° |
| 2026-05-07 14:59 | 43.51526 | -1.46208 | 40912 ft | 463 kts | 217° |
| 2026-05-07 15:00 | 43.46611 | -1.51887 | 40909 ft | 461 kts | 228° |
| 2026-05-07 15:00 | 43.42758 | -1.58915 | 40911 ft | 461 kts | 236° |
| 2026-05-07 15:01 | 43.39194 | -1.66264 | 40912 ft | 462 kts | 237° |
| 2026-05-07 15:01 | 43.36259 | -1.72397 | 40911 ft | 462 kts | 236° |
| 2026-05-07 15:02 | 43.32137 | -1.80947 | 40911 ft | 462 kts | 236° |
| 2026-05-07 15:02 | 43.28483 | -1.88200 | 40907 ft | 462 kts | 233° |
| 2026-05-07 15:03 | 43.24559 | -1.95181 | 40906 ft | 462 kts | 232° |
| 2026-05-07 15:03 | 43.21270 | -2.00969 | 40903 ft | 463 kts | 233° |
| 2026-05-07 15:04 | 43.16717 | -2.09100 | 40903 ft | 463 kts | 233° |
| 2026-05-07 15:04 | 43.12820 | -2.16114 | 40895 ft | 463 kts | 233° |
| 2026-05-07 15:05 | 43.09580 | -2.21941 | 40895 ft | 463 kts | 233° |
| 2026-05-07 15:05 | 43.05678 | -2.28943 | 40896 ft | 463 kts | 233° |
| 2026-05-07 15:06 | 43.01124 | -2.37087 | 40890 ft | 465 kts | 233° |
| 2026-05-07 15:06 | 42.97190 | -2.44102 | 40882 ft | 466 kts | 233° |
| 2026-05-07 15:07 | 42.93906 | -2.49947 | 40886 ft | 467 kts | 233° |
| 2026-05-07 15:07 | 42.89956 | -2.56961 | 40887 ft | 466 kts | 233° |
| 2026-05-07 15:08 | 42.85355 | -2.65111 | 40910 ft | 466 kts | 233° |
| 2026-05-07 15:08 | 42.82062 | -2.70929 | 40915 ft | 467 kts | 233° |
| 2026-05-07 15:09 | 42.78095 | -2.77923 | 40912 ft | 467 kts | 233° |
| 2026-05-07 15:09 | 42.74119 | -2.84918 | 40887 ft | 467 kts | 233° |
| 2026-05-07 15:10 | 42.70165 | -2.91930 | 40887 ft | 467 kts | 233° |
| 2026-05-07 15:10 | 42.66260 | -2.98978 | 40890 ft | 467 kts | 233° |
| 2026-05-07 15:11 | 42.62373 | -3.05980 | 40898 ft | 467 kts | 233° |
| 2026-05-07 15:11 | 42.58452 | -3.13006 | 40892 ft | 467 kts | 233° |
| 2026-05-07 15:12 | 42.54517 | -3.20030 | 40888 ft | 467 kts | 233° |
| 2026-05-07 15:12 | 42.50582 | -3.27037 | 40915 ft | 467 kts | 233° |
| 2026-05-07 15:13 | 42.46634 | -3.34049 | 40929 ft | 467 kts | 233° |
| 2026-05-07 15:13 | 42.42716 | -3.40994 | 40947 ft | 467 kts | 233° |
| 2026-05-07 15:14 | 42.38766 | -3.47979 | 40965 ft | 468 kts | 233° |
| 2026-05-07 15:14 | 42.34803 | -3.54970 | 40957 ft | 469 kts | 233° |
| 2026-05-07 15:15 | 42.30853 | -3.61922 | 40964 ft | 469 kts | 233° |
| 2026-05-07 15:15 | 42.26879 | -3.68900 | 40962 ft | 469 kts | 233° |
| 2026-05-07 15:16 | 42.22901 | -3.75870 | 40898 ft | 469 kts | 233° |
| 2026-05-07 15:16 | 42.18916 | -3.82835 | 40904 ft | 469 kts | 233° |
| 2026-05-07 15:17 | 42.14922 | -3.89800 | 40896 ft | 470 kts | 233° |
| 2026-05-07 15:17 | 42.10946 | -3.96717 | 40896 ft | 470 kts | 233° |
| 2026-05-07 15:18 | 42.06942 | -4.03668 | 40899 ft | 470 kts | 233° |
| 2026-05-07 15:18 | 42.02829 | -4.10509 | 40899 ft | 471 kts | 227° |
| 2026-05-07 15:19 | 41.98041 | -4.16517 | 40898 ft | 471 kts | 223° |
| 2026-05-07 15:19 | 41.93133 | -4.22274 | 40899 ft | 472 kts | 222° |
| 2026-05-07 15:20 | 41.88165 | -4.28033 | 40908 ft | 471 kts | 222° |
| 2026-05-07 15:20 | 41.83212 | -4.33787 | 40893 ft | 471 kts | 222° |
| 2026-05-07 15:21 | 41.78266 | -4.39542 | 40891 ft | 471 kts | 222° |
| 2026-05-07 15:21 | 41.73318 | -4.45292 | 40906 ft | 471 kts | 222° |
| 2026-05-07 15:22 | 41.68396 | -4.50999 | 40894 ft | 471 kts | 222° |
| 2026-05-07 15:22 | 41.63442 | -4.56731 | 40900 ft | 471 kts | 222° |
| 2026-05-07 15:23 | 41.58489 | -4.62447 | 40901 ft | 471 kts | 223° |
| 2026-05-07 15:23 | 41.53531 | -4.68159 | 40899 ft | 471 kts | 223° |
| 2026-05-07 15:24 | 41.48600 | -4.73828 | 40893 ft | 471 kts | 223° |
| 2026-05-07 15:24 | 41.43638 | -4.79521 | 40898 ft | 471 kts | 223° |
| 2026-05-07 15:25 | 41.38668 | -4.85209 | 40903 ft | 471 kts | 223° |
| 2026-05-07 15:25 | 41.33697 | -4.90889 | 40903 ft | 471 kts | 223° |
| 2026-05-07 15:26 | 41.28756 | -4.96522 | 40902 ft | 471 kts | 223° |
| 2026-05-07 15:26 | 41.23777 | -5.02178 | 40888 ft | 471 kts | 223° |
| 2026-05-07 15:27 | 41.18791 | -5.07836 | 40903 ft | 471 kts | 223° |
| 2026-05-07 15:27 | 41.13812 | -5.13474 | 40903 ft | 470 kts | 223° |
| 2026-05-07 15:28 | 41.08868 | -5.19059 | 40895 ft | 470 kts | 223° |
| 2026-05-07 15:28 | 41.03885 | -5.24679 | 40888 ft | 470 kts | 223° |
| 2026-05-07 15:29 | 40.98897 | -5.30291 | 40886 ft | 470 kts | 223° |
| 2026-05-07 15:29 | 40.93915 | -5.35884 | 40884 ft | 469 kts | 224° |
| 2026-05-07 15:30 | 40.88983 | -5.41410 | 40885 ft | 467 kts | 224° |
| 2026-05-07 15:30 | 40.84023 | -5.46957 | 40884 ft | 467 kts | 223° |
| 2026-05-07 15:31 | 40.79057 | -5.52501 | 40884 ft | 467 kts | 223° |
| 2026-05-07 15:31 | 40.74094 | -5.58028 | 40878 ft | 466 kts | 224° |
| 2026-05-07 15:32 | 40.69178 | -5.63492 | 40882 ft | 465 kts | 224° |
| 2026-05-07 15:32 | 40.64236 | -5.68974 | 40875 ft | 465 kts | 224° |
| 2026-05-07 15:33 | 40.59293 | -5.74446 | 40875 ft | 463 kts | 224° |
| 2026-05-07 15:33 | 40.54372 | -5.79883 | 40873 ft | 461 kts | 224° |
| 2026-05-07 15:34 | 40.49460 | -5.85308 | 40873 ft | 461 kts | 224° |
| 2026-05-07 15:34 | 40.44577 | -5.90682 | 40873 ft | 461 kts | 224° |
| 2026-05-07 15:35 | 40.39656 | -5.96087 | 40865 ft | 461 kts | 224° |
| 2026-05-07 15:35 | 40.34734 | -6.01484 | 40864 ft | 461 kts | 224° |
| 2026-05-07 15:36 | 40.29814 | -6.06868 | 40860 ft | 461 kts | 224° |
| 2026-05-07 15:36 | 40.24936 | -6.12195 | 40859 ft | 458 kts | 224° |
| 2026-05-07 15:37 | 40.20045 | -6.17526 | 40854 ft | 457 kts | 223° |
| 2026-05-07 15:37 | 40.15161 | -6.22842 | 40856 ft | 457 kts | 223° |
| 2026-05-07 15:38 | 40.10273 | -6.28151 | 40851 ft | 457 kts | 223° |
| 2026-05-07 15:38 | 40.05379 | -6.33457 | 40849 ft | 457 kts | 223° |
| 2026-05-07 15:39 | 40.00527 | -6.38708 | 40848 ft | 456 kts | 223° |
| 2026-05-07 15:39 | 39.95643 | -6.43986 | 40842 ft | 456 kts | 223° |
| 2026-05-07 15:40 | 39.90749 | -6.49253 | 40842 ft | 456 kts | 223° |
| 2026-05-07 15:40 | 39.85848 | -6.54520 | 40843 ft | 457 kts | 223° |
| 2026-05-07 15:41 | 39.80975 | -6.59748 | 40839 ft | 457 kts | 223° |
| 2026-05-07 15:41 | 39.76077 | -6.64994 | 40840 ft | 456 kts | 223° |
| 2026-05-07 15:42 | 39.71174 | -6.70235 | 40838 ft | 456 kts | 223° |
| 2026-05-07 15:42 | 39.66270 | -6.75468 | 40836 ft | 456 kts | 223° |
| 2026-05-07 15:43 | 39.61396 | -6.80660 | 40834 ft | 456 kts | 223° |
| 2026-05-07 15:43 | 39.56490 | -6.85875 | 40839 ft | 456 kts | 223° |
| 2026-05-07 15:44 | 39.51585 | -6.91079 | 40829 ft | 455 kts | 223° |
| 2026-05-07 15:44 | 39.46688 | -6.96265 | 40829 ft | 455 kts | 223° |
| 2026-05-07 15:45 | 39.41784 | -7.01450 | 40837 ft | 455 kts | 223° |
| 2026-05-07 15:45 | 39.36916 | -7.06586 | 40830 ft | 455 kts | 223° |
| 2026-05-07 15:46 | 39.29572 | -7.14316 | 40828 ft | 453 kts | 223° |
| 2026-05-07 15:47 | 39.24682 | -7.19439 | 40830 ft | 453 kts | 222° |
| 2026-05-07 15:47 | 39.19072 | -7.23258 | 40839 ft | 464 kts | 202° |
| 2026-05-07 15:48 | 39.12885 | -7.25518 | 40836 ft | 466 kts | 200° |
| 2026-05-07 15:48 | 39.06634 | -7.27702 | 40835 ft | 465 kts | 200° |
| 2026-05-07 15:49 | 39.00396 | -7.29881 | 40660 ft | 463 kts | 200° |
| 2026-05-07 15:49 | 38.97325 | -7.30948 | 40551 ft | 452 kts | 201° |
| 2026-05-07 15:49 | 38.94334 | -7.31990 | 39840 ft | 453 kts | 201° |
| 2026-05-07 15:49 | 38.91281 | -7.33058 | 38990 ft | 457 kts | 201° |
| 2026-05-07 15:50 | 38.88202 | -7.34133 | 38112 ft | 459 kts | 202° |
| 2026-05-07 15:50 | 38.85125 | -7.35204 | 37371 ft | 457 kts | 202° |
| 2026-05-07 15:50 | 38.82065 | -7.36266 | 36689 ft | 454 kts | 202° |
| 2026-05-07 15:50 | 38.79024 | -7.37321 | 36004 ft | 452 kts | 202° |
| 2026-05-07 15:51 | 38.76001 | -7.38369 | 35404 ft | 448 kts | 203° |
| 2026-05-07 15:51 | 38.73011 | -7.39403 | 34890 ft | 443 kts | 202° |
| 2026-05-07 15:51 | 38.70047 | -7.40429 | 34377 ft | 438 kts | 203° |
| 2026-05-07 15:51 | 38.67119 | -7.41442 | 33857 ft | 435 kts | 203° |
| 2026-05-07 15:52 | 38.64249 | -7.42436 | 33283 ft | 431 kts | 202° |
| 2026-05-07 15:52 | 38.61379 | -7.43428 | 32774 ft | 425 kts | 202° |
| 2026-05-07 15:52 | 38.58536 | -7.44409 | 32270 ft | 420 kts | 202° |
| 2026-05-07 15:52 | 38.55727 | -7.45379 | 31777 ft | 416 kts | 202° |
| 2026-05-07 15:53 | 38.52944 | -7.46339 | 31283 ft | 412 kts | 202° |
| 2026-05-07 15:53 | 38.50193 | -7.47287 | 30795 ft | 408 kts | 202° |
| 2026-05-07 15:53 | 38.47460 | -7.48228 | 30307 ft | 404 kts | 201° |
| 2026-05-07 15:53 | 38.44759 | -7.49158 | 29815 ft | 402 kts | 201° |
| 2026-05-07 15:54 | 38.42106 | -7.50071 | 29288 ft | 399 kts | 201° |
| 2026-05-07 15:54 | 38.39429 | -7.50990 | 28792 ft | 396 kts | 201° |
| 2026-05-07 15:54 | 38.36780 | -7.51899 | 28324 ft | 393 kts | 201° |
| 2026-05-07 15:54 | 38.34145 | -7.52802 | 27856 ft | 390 kts | 201° |
| 2026-05-07 15:55 | 38.31537 | -7.53697 | 27355 ft | 387 kts | 201° |
| 2026-05-07 15:55 | 38.28940 | -7.54586 | 26888 ft | 384 kts | 201° |
| 2026-05-07 15:55 | 38.26370 | -7.55465 | 26411 ft | 381 kts | 200° |
| 2026-05-07 15:55 | 38.23849 | -7.56327 | 25939 ft | 379 kts | 200° |
| 2026-05-07 15:56 | 38.21313 | -7.57194 | 25478 ft | 376 kts | 200° |
| 2026-05-07 15:56 | 38.18800 | -7.58051 | 24997 ft | 373 kts | 200° |
| 2026-05-07 15:56 | 38.16299 | -7.58904 | 24522 ft | 371 kts | 200° |
| 2026-05-07 15:56 | 38.13811 | -7.59753 | 24048 ft | 369 kts | 200° |
| 2026-05-07 15:57 | 38.11343 | -7.60594 | 23582 ft | 367 kts | 199° |
| 2026-05-07 15:57 | 38.08856 | -7.61302 | 23049 ft | 368 kts | 192° |
| 2026-05-07 15:57 | 38.06303 | -7.61482 | 22554 ft | 367 kts | 185° |
| 2026-05-07 15:57 | 38.03763 | -7.61479 | 22087 ft | 363 kts | 184° |
| 2026-05-07 15:58 | 38.01284 | -7.61465 | 21633 ft | 359 kts | 184° |
| 2026-05-07 15:58 | 37.98793 | -7.61456 | 21162 ft | 357 kts | 184° |
| 2026-05-07 15:58 | 37.96312 | -7.61453 | 20703 ft | 355 kts | 184° |
| 2026-05-07 15:58 | 37.93849 | -7.61451 | 20231 ft | 353 kts | 184° |
| 2026-05-07 15:59 | 37.91403 | -7.61451 | 19786 ft | 350 kts | 184° |
| 2026-05-07 15:59 | 37.88977 | -7.61451 | 19336 ft | 347 kts | 184° |
| 2026-05-07 15:59 | 37.86574 | -7.61451 | 18891 ft | 344 kts | 184° |
| 2026-05-07 15:59 | 37.84187 | -7.61452 | 18440 ft | 341 kts | 184° |
| 2026-05-07 16:00 | 37.81854 | -7.61454 | 17976 ft | 339 kts | 184° |
| 2026-05-07 16:00 | 37.79508 | -7.61455 | 17515 ft | 336 kts | 184° |
| 2026-05-07 16:00 | 37.77176 | -7.61456 | 17063 ft | 334 kts | 183° |
| 2026-05-07 16:00 | 37.74854 | -7.61457 | 16622 ft | 332 kts | 183° |
| 2026-05-07 16:01 | 37.72550 | -7.61458 | 16173 ft | 330 kts | 183° |
| 2026-05-07 16:01 | 37.70256 | -7.61459 | 15734 ft | 328 kts | 182° |
| 2026-05-07 16:01 | 37.67984 | -7.61460 | 15300 ft | 326 kts | 182° |
| 2026-05-07 16:01 | 37.65731 | -7.61462 | 14867 ft | 323 kts | 182° |
| 2026-05-07 16:02 | 37.63489 | -7.61463 | 14436 ft | 321 kts | 182° |
| 2026-05-07 16:02 | 37.61293 | -7.61464 | 14016 ft | 318 kts | 181° |
| 2026-05-07 16:02 | 37.59088 | -7.61466 | 13570 ft | 315 kts | 181° |
| 2026-05-07 16:02 | 37.56912 | -7.61467 | 13113 ft | 311 kts | 181° |
| 2026-05-07 16:03 | 37.54750 | -7.61467 | 12692 ft | 311 kts | 181° |
| 2026-05-07 16:03 | 37.52594 | -7.61468 | 12265 ft | 309 kts | 180° |
| 2026-05-07 16:03 | 37.50440 | -7.61469 | 11842 ft | 309 kts | 180° |
| 2026-05-07 16:03 | 37.48303 | -7.61469 | 11415 ft | 306 kts | 180° |
| 2026-05-07 16:04 | 37.46187 | -7.61469 | 10992 ft | 303 kts | 181° |
| 2026-05-07 16:04 | 37.44098 | -7.61470 | 10658 ft | 295 kts | 180° |
| 2026-05-07 16:04 | 37.42121 | -7.61470 | 10535 ft | 280 kts | 180° |
| 2026-05-07 16:04 | 37.40224 | -7.61471 | 10431 ft | 266 kts | 181° |
| 2026-05-07 16:05 | 37.38405 | -7.61471 | 10306 ft | 260 kts | 181° |
| 2026-05-07 16:05 | 37.36593 | -7.61472 | 10003 ft | 261 kts | 180° |
| 2026-05-07 16:05 | 37.34773 | -7.61471 | 9683 ft | 266 kts | 181° |
| 2026-05-07 16:05 | 37.32873 | -7.61472 | 9557 ft | 276 kts | 181° |
| 2026-05-07 16:06 | 37.30948 | -7.61472 | 9188 ft | 276 kts | 181° |
| 2026-05-07 16:06 | 37.29031 | -7.61470 | 8702 ft | 275 kts | 181° |
| 2026-05-07 16:06 | 37.27117 | -7.61470 | 8365 ft | 275 kts | 181° |
| 2026-05-07 16:06 | 37.25202 | -7.61471 | 8022 ft | 277 kts | 181° |
| 2026-05-07 16:07 | 37.23304 | -7.61471 | 7693 ft | 276 kts | 181° |
| 2026-05-07 16:07 | 37.21381 | -7.61472 | 7363 ft | 278 kts | 180° |
| 2026-05-07 16:07 | 37.19439 | -7.61472 | 7114 ft | 280 kts | 180° |
| 2026-05-07 16:07 | 37.17493 | -7.61477 | 6800 ft | 280 kts | 180° |
| 2026-05-07 16:08 | 37.15548 | -7.61479 | 6466 ft | 279 kts | 180° |
| 2026-05-07 16:08 | 37.13613 | -7.61480 | 6200 ft | 273 kts | 179° |
| 2026-05-07 16:08 | 37.11760 | -7.61480 | 6027 ft | 259 kts | 180° |
| 2026-05-07 16:08 | 37.10005 | -7.61481 | 5589 ft | 248 kts | 180° |
| 2026-05-07 16:09 | 37.08343 | -7.61623 | 5228 ft | 242 kts | 191° |
| 2026-05-07 16:09 | 37.06746 | -7.62276 | 4913 ft | 240 kts | 203° |
| 2026-05-07 16:09 | 37.05231 | -7.63106 | 4618 ft | 236 kts | 204° |
| 2026-05-07 16:09 | 37.03746 | -7.63939 | 4424 ft | 234 kts | 204° |
| 2026-05-07 16:10 | 37.02281 | -7.64757 | 4339 ft | 224 kts | 204° |
| 2026-05-07 16:10 | 37.00898 | -7.65524 | 4266 ft | 210 kts | 204° |
| 2026-05-07 16:10 | 36.99578 | -7.66258 | 4163 ft | 207 kts | 204° |
| 2026-05-07 16:10 | 36.98390 | -7.67258 | 4049 ft | 208 kts | 230° |
| 2026-05-07 16:11 | 36.97850 | -7.68891 | 3945 ft | 208 kts | 258° |
| 2026-05-07 16:11 | 36.97803 | -7.70718 | 3838 ft | 209 kts | 275° |
| 2026-05-07 16:11 | 36.98045 | -7.72487 | 3717 ft | 208 kts | 279° |
| 2026-05-07 16:11 | 36.98289 | -7.74263 | 3492 ft | 205 kts | 278° |
| 2026-05-07 16:12 | 36.98527 | -7.76018 | 3213 ft | 204 kts | 277° |
| 2026-05-07 16:12 | 36.98771 | -7.77752 | 2922 ft | 203 kts | 278° |
| 2026-05-07 16:12 | 36.99015 | -7.79452 | 2654 ft | 190 kts | 276° |
| 2026-05-07 16:12 | 36.99233 | -7.81002 | 2401 ft | 172 kts | 275° |
| 2026-05-07 16:13 | 36.99428 | -7.82412 | 2175 ft | 158 kts | 277° |
| 2026-05-07 16:13 | 36.99621 | -7.83747 | 1978 ft | 154 kts | 277° |
| 2026-05-07 16:13 | 36.99805 | -7.85052 | 1763 ft | 153 kts | 276° |
| 2026-05-07 16:13 | 36.99983 | -7.86304 | 1569 ft | 141 kts | 275° |
| 2026-05-07 16:14 | 37.00148 | -7.87465 | 1376 ft | 131 kts | 275° |
| 2026-05-07 16:14 | 37.00303 | -7.88560 | 1216 ft | 126 kts | 272° |
| 2026-05-07 16:14 | 37.00453 | -7.89626 | 1043 ft | 123 kts | 272° |
| 2026-05-07 16:14 | 37.00602 | -7.90674 | 881 ft | 121 kts | 275° |
| 2026-05-07 16:15 | 37.00750 | -7.91709 | 727 ft | 121 kts | 275° |
| 2026-05-07 16:15 | 37.00899 | -7.92750 | 583 ft | 122 kts | 276° |
| 2026-05-07 16:15 | 37.01048 | -7.93795 | 452 ft | 122 kts | 275° |
| 2026-05-07 16:15 | 37.01183 | -7.94825 | 237 ft | 119 kts | 278° |
| 2026-05-07 16:16 | 37.01337 | -7.95840 | 62 ft | 118 kts | 277° |
| 2026-05-07 16:16 | 37.01466 | -7.96757 | 31 ft | 88 kts | 279° |
| 2026-05-07 16:16 | 37.01524 | -7.97160 | 27 ft | 20 kts | 281° |
| 2026-05-07 16:16 | 37.01553 | -7.97368 | 28 ft | 29 kts | 280° |
| 2026-05-07 16:17 | 37.01590 | -7.97624 | 27 ft | 31 kts | 280° |
| 2026-05-07 16:17 | 37.01624 | -7.97826 | 28 ft | 16 kts | 302° |
| 2026-05-07 16:17 | 37.01718 | -7.97812 | 30 ft | 17 kts | 49° |
| 2026-05-07 16:17 | 37.01740 | -7.97767 | 30 ft | 0 kts | 65° |
| 2026-05-07 16:18 | 37.01743 | -7.97757 | 31 ft | 3 kts | 65° |
| 2026-05-07 16:18 | 37.01758 | -7.97711 | 31 ft | 8 kts | 71° |
| 2026-05-07 16:18 | 37.01770 | -7.97622 | 26 ft | 14 kts | 90° |
| 2026-05-07 16:19 | 37.01753 | -7.97473 | 29 ft | 20 kts | 99° |
| 2026-05-07 16:19 | 37.01725 | -7.97281 | 30 ft | 25 kts | 100° |
| 2026-05-07 16:19 | 37.01696 | -7.97081 | 29 ft | 21 kts | 99° |
| 2026-05-07 16:19 | 37.01691 | -7.96939 | 30 ft | 15 kts | 62° |
| 2026-05-07 16:20 | 37.01785 | -7.96888 | 30 ft | 16 kts | 17° |
| 2026-05-07 16:20 | 37.01826 | -7.96803 | 29 ft | 10 kts | 109° |
| 2026-05-07 16:20 | 37.01790 | -7.96768 | 29 ft | 5 kts | 191° |
| 2026-05-07 16:20 | 37.01754 | -7.96778 | 31 ft | 3 kts | 192° |
| 2026-05-07 16:21 | 37.01753 | -7.96778 | 31 ft | 0 kts | 192° |